createdAt,value
2018-11-25T00:00:14.157Z,0.00
2018-11-25T00:01:14.072Z,0.00
2018-11-25T00:02:13.985Z,0.00
2018-11-25T00:03:13.905Z,0.00
2018-11-25T00:04:13.847Z,0.00
2018-11-25T00:05:13.739Z,0.00
2018-11-25T00:06:13.661Z,0.00
2018-11-25T00:07:13.578Z,0.00
2018-11-25T00:08:13.481Z,0.00
2018-11-25T00:09:13.396Z,0.00
2018-11-25T00:10:13.310Z,0.00
2018-11-25T00:11:13.226Z,0.00
2018-11-25T00:12:13.145Z,0.00
2018-11-25T00:13:13.058Z,0.00
2018-11-25T00:14:12.983Z,0.00
2018-11-25T00:15:12.890Z,0.00
2018-11-25T00:16:12.806Z,0.00
2018-11-25T00:17:12.721Z,0.00
2018-11-25T00:18:12.635Z,0.00
2018-11-25T00:19:12.553Z,0.00
2018-11-25T00:20:12.468Z,0.00
2018-11-25T00:21:12.389Z,0.00
2018-11-25T00:22:12.298Z,0.00
2018-11-25T00:23:12.227Z,0.00
2018-11-25T00:24:12.131Z,0.00
2018-11-25T00:25:12.088Z,0.00
2018-11-25T00:26:11.965Z,0.00
2018-11-25T00:27:11.888Z,0.00
2018-11-25T00:28:11.798Z,0.00
2018-11-25T00:29:11.712Z,0.00
2018-11-25T00:30:11.625Z,0.00
2018-11-25T00:31:11.540Z,0.00
2018-11-25T00:32:11.460Z,0.00
2018-11-25T00:33:11.375Z,0.00
2018-11-25T00:34:11.287Z,0.00
2018-11-25T00:35:11.205Z,0.00
2018-11-25T00:36:11.120Z,0.00
2018-11-25T00:37:11.038Z,0.00
2018-11-25T00:38:10.967Z,0.00
2018-11-25T00:39:10.874Z,0.00
2018-11-25T00:40:10.791Z,0.00
2018-11-25T00:41:10.706Z,0.00
2018-11-25T00:42:10.622Z,0.00
2018-11-25T00:43:10.531Z,0.00
2018-11-25T00:44:10.453Z,0.00
2018-11-25T00:45:10.364Z,0.00
2018-11-25T00:46:10.277Z,0.00
2018-11-25T00:47:10.193Z,0.00
2018-11-25T00:48:10.110Z,0.00
2018-11-25T00:49:10.026Z,0.00
2018-11-25T00:50:09.955Z,0.00
2018-11-25T00:51:09.879Z,0.00
2018-11-25T00:52:09.780Z,0.00
2018-11-25T00:53:09.695Z,0.00
2018-11-25T00:54:09.604Z,0.00
2018-11-25T00:55:09.523Z,0.00
2018-11-25T00:56:09.441Z,0.00
2018-11-25T00:57:09.355Z,0.00
2018-11-25T00:58:09.270Z,0.00
2018-11-25T00:59:09.188Z,0.00
2018-11-25T01:00:09.102Z,0.00
2018-11-25T01:01:09.017Z,0.00
2018-11-25T01:02:08.938Z,0.00
2018-11-25T01:03:08.847Z,0.00
2018-11-25T01:04:08.764Z,0.00
2018-11-25T01:05:08.688Z,0.00
2018-11-25T01:06:08.595Z,0.00
2018-11-25T01:07:08.511Z,0.00
2018-11-25T01:08:08.428Z,0.00
2018-11-25T01:09:08.356Z,0.00
2018-11-25T01:10:08.259Z,0.00
2018-11-25T01:11:08.178Z,0.00
2018-11-25T01:12:08.112Z,0.00
2018-11-25T01:13:08.011Z,0.00
2018-11-25T01:14:07.926Z,0.00
2018-11-25T01:15:07.841Z,0.00
2018-11-25T01:16:07.759Z,0.00
2018-11-25T01:17:07.684Z,0.00
2018-11-25T01:18:07.606Z,0.00
2018-11-25T01:19:07.511Z,0.00
2018-11-25T01:20:07.419Z,0.00
2018-11-25T01:21:07.335Z,0.00
2018-11-25T01:22:07.250Z,0.00
2018-11-25T01:23:07.164Z,0.00
2018-11-25T01:24:07.083Z,0.00
2018-11-25T01:25:07.024Z,0.00
2018-11-25T01:26:06.917Z,0.00
2018-11-25T01:27:06.830Z,0.00
2018-11-25T01:28:06.752Z,0.00
2018-11-25T01:29:06.663Z,0.00
2018-11-25T01:30:06.578Z,0.00
2018-11-25T01:31:06.495Z,0.00
2018-11-25T01:32:06.410Z,0.00
2018-11-25T01:33:06.328Z,0.00
2018-11-25T01:34:06.263Z,0.00
2018-11-25T01:35:06.170Z,0.00
2018-11-25T01:36:06.076Z,0.00
2018-11-25T01:37:05.992Z,0.00
2018-11-25T01:38:05.903Z,0.00
2018-11-25T01:39:05.820Z,0.00
2018-11-25T01:40:05.737Z,0.00
2018-11-25T01:41:05.650Z,0.00
2018-11-25T01:42:05.572Z,0.00
2018-11-25T01:43:05.498Z,0.00
2018-11-25T01:44:05.407Z,0.00
2018-11-25T01:45:05.316Z,0.00
2018-11-25T01:46:05.233Z,0.00
2018-11-25T01:47:05.147Z,0.00
2018-11-25T01:48:05.064Z,0.00
2018-11-25T01:49:04.981Z,0.00
2018-11-25T01:50:04.895Z,0.00
2018-11-25T01:51:04.814Z,0.00
2018-11-25T01:52:04.745Z,0.00
2018-11-25T01:53:04.659Z,0.00
2018-11-25T01:54:04.569Z,0.00
2018-11-25T01:55:04.477Z,0.00
2018-11-25T01:56:04.391Z,0.00
2018-11-25T01:57:04.310Z,0.00
2018-11-25T01:58:04.226Z,0.00
2018-11-25T01:59:04.142Z,0.00
2018-11-25T02:00:04.056Z,0.00
2018-11-25T02:01:03.979Z,0.00
2018-11-25T02:02:10.660Z,0.00
2018-11-25T02:03:03.801Z,0.00
2018-11-25T02:04:03.718Z,0.00
2018-11-25T02:05:03.637Z,0.00
2018-11-25T02:06:03.556Z,0.00
2018-11-25T02:07:03.466Z,0.00
2018-11-25T02:08:03.382Z,0.00
2018-11-25T02:09:03.312Z,0.00
2018-11-25T02:10:03.231Z,0.00
2018-11-25T02:11:03.148Z,0.00
2018-11-25T02:12:03.055Z,0.00
2018-11-25T02:13:02.964Z,0.00
2018-11-25T02:14:02.879Z,0.00
2018-11-25T02:15:02.793Z,0.00
2018-11-25T02:16:02.709Z,0.00
2018-11-25T02:17:02.629Z,0.00
2018-11-25T02:18:02.545Z,0.00
2018-11-25T02:19:02.476Z,0.00
2018-11-25T02:20:02.373Z,0.00
2018-11-25T02:21:02.296Z,0.00
2018-11-25T02:22:02.212Z,0.00
2018-11-25T02:23:02.127Z,0.00
2018-11-25T02:24:02.035Z,0.00
2018-11-25T02:25:01.964Z,0.00
2018-11-25T02:26:01.871Z,0.00
2018-11-25T02:27:01.798Z,0.00
2018-11-25T02:28:01.710Z,0.00
2018-11-25T02:29:01.630Z,0.00
2018-11-25T02:30:01.544Z,0.00
2018-11-25T02:31:01.449Z,0.00
2018-11-25T02:32:01.369Z,0.00
2018-11-25T02:33:01.291Z,0.00
2018-11-25T02:34:01.214Z,0.00
2018-11-25T02:35:01.124Z,0.00
2018-11-25T02:36:01.037Z,0.00
2018-11-25T02:37:00.961Z,0.00
2018-11-25T02:38:00.875Z,0.00
2018-11-25T02:39:00.780Z,0.00
2018-11-25T02:40:00.690Z,0.00
2018-11-25T02:41:00.612Z,0.00
2018-11-25T02:42:00.525Z,0.00
2018-11-25T02:43:00.439Z,0.00
2018-11-25T02:44:00.353Z,0.00
2018-11-25T02:45:00.271Z,0.00
2018-11-25T02:46:00.195Z,0.00
2018-11-25T02:47:00.109Z,0.00
2018-11-25T02:48:00.023Z,0.00
2018-11-25T02:48:59.934Z,0.00
2018-11-25T02:49:59.849Z,0.00
2018-11-25T02:50:59.765Z,0.00
2018-11-25T02:51:59.683Z,0.00
2018-11-25T02:52:59.598Z,0.00
2018-11-25T02:53:59.522Z,0.00
2018-11-25T02:54:59.434Z,0.00
2018-11-25T02:55:59.348Z,0.00
2018-11-25T02:56:59.262Z,0.00
2018-11-25T02:57:59.175Z,0.00
2018-11-25T02:58:59.105Z,0.00
2018-11-25T02:59:59.007Z,0.00
2018-11-25T03:00:58.924Z,0.00
2018-11-25T03:01:58.849Z,0.00
2018-11-25T03:02:58.777Z,0.00
2018-11-25T03:03:58.671Z,0.00
2018-11-25T03:04:58.590Z,0.00
2018-11-25T03:05:58.505Z,0.00
2018-11-25T03:06:58.419Z,0.00
2018-11-25T03:07:58.333Z,0.00
2018-11-25T03:08:58.251Z,0.00
2018-11-25T03:09:58.171Z,0.00
2018-11-25T03:10:58.088Z,0.00
2018-11-25T03:11:58.010Z,0.00
2018-11-25T03:12:57.919Z,0.00
2018-11-25T03:13:57.828Z,0.00
2018-11-25T03:14:57.750Z,0.00
2018-11-25T03:15:57.682Z,0.00
2018-11-25T03:16:57.586Z,0.00
2018-11-25T03:17:57.500Z,0.00
2018-11-25T03:18:57.410Z,0.00
2018-11-25T03:19:57.354Z,0.00
2018-11-25T03:20:57.248Z,0.00
2018-11-25T03:21:57.168Z,0.00
2018-11-25T03:22:57.072Z,0.00
2018-11-25T03:23:56.989Z,0.00
2018-11-25T03:24:56.902Z,0.00
2018-11-25T03:25:56.817Z,0.00
2018-11-25T03:26:56.767Z,0.00
2018-11-25T03:27:56.652Z,0.00
2018-11-25T03:28:56.568Z,0.00
2018-11-25T03:29:56.501Z,0.00
2018-11-25T03:30:56.398Z,0.00
2018-11-25T03:31:56.329Z,0.00
2018-11-25T03:32:56.230Z,0.00
2018-11-25T03:33:56.151Z,0.00
2018-11-25T03:34:56.066Z,0.00
2018-11-25T03:35:55.978Z,0.00
2018-11-25T03:36:55.907Z,0.00
2018-11-25T03:37:55.813Z,0.00
2018-11-25T03:38:55.753Z,0.00
2018-11-25T03:39:55.643Z,0.00
2018-11-25T03:40:55.568Z,0.00
2018-11-25T03:41:55.472Z,0.00
2018-11-25T03:42:55.387Z,0.00
2018-11-25T03:43:55.308Z,0.00
2018-11-25T03:44:55.221Z,0.00
2018-11-25T03:45:55.145Z,0.00
2018-11-25T03:46:55.055Z,0.00
2018-11-25T03:47:54.976Z,0.00
2018-11-25T03:49:02.513Z,0.00
2018-11-25T03:51:06.857Z,0.00
2018-11-25T03:52:06.714Z,0.00
2018-11-25T03:54:11.070Z,0.00
2018-11-25T03:55:10.949Z,0.00
2018-11-25T03:57:15.227Z,0.00
2018-11-25T03:58:15.142Z,0.00
2018-11-25T04:00:19.469Z,0.00
2018-11-25T04:01:19.336Z,0.00
2018-11-25T04:03:12.565Z,0.00
2018-11-25T04:04:12.477Z,0.00
2018-11-25T04:06:17.830Z,0.00
2018-11-25T04:07:17.701Z,0.00
2018-11-25T04:09:22.021Z,0.00
2018-11-25T04:10:21.891Z,0.00
2018-11-25T04:12:18.554Z,0.00
2018-11-25T04:13:18.464Z,0.00
2018-11-25T04:14:18.406Z,0.00
2018-11-25T04:15:18.305Z,0.00
2018-11-25T04:16:18.215Z,0.00
2018-11-25T04:17:18.139Z,0.00
2018-11-25T04:18:18.041Z,0.00
2018-11-25T04:19:17.957Z,0.00
2018-11-25T04:20:17.877Z,0.00
2018-11-25T04:21:17.792Z,0.00
2018-11-25T04:22:17.702Z,0.00
2018-11-25T04:23:17.622Z,0.00
2018-11-25T04:24:17.557Z,0.00
2018-11-25T04:25:17.455Z,0.00
2018-11-25T04:26:17.377Z,0.00
2018-11-25T04:27:17.290Z,0.00
2018-11-25T04:28:17.199Z,0.00
2018-11-25T04:29:17.121Z,0.00
2018-11-25T04:30:17.030Z,0.00
2018-11-25T04:31:16.953Z,0.00
2018-11-25T04:32:16.868Z,0.00
2018-11-25T04:33:16.805Z,0.00
2018-11-25T04:34:16.696Z,0.00
2018-11-25T04:35:16.614Z,0.00
2018-11-25T04:36:16.530Z,0.00
2018-11-25T04:37:16.443Z,0.00
2018-11-25T04:38:16.357Z,0.00
2018-11-25T04:39:16.277Z,0.00
2018-11-25T04:40:16.194Z,0.00
2018-11-25T04:41:16.125Z,0.00
2018-11-25T04:42:16.030Z,0.00
2018-11-25T04:43:15.944Z,0.00
2018-11-25T04:44:15.863Z,0.00
2018-11-25T04:45:15.772Z,0.00
2018-11-25T04:46:15.690Z,0.00
2018-11-25T04:47:15.600Z,0.00
2018-11-25T04:48:15.515Z,0.00
2018-11-25T04:49:15.439Z,0.00
2018-11-25T04:50:15.363Z,0.00
2018-11-25T04:51:15.274Z,0.00
2018-11-25T04:52:15.193Z,0.00
2018-11-25T04:53:15.100Z,0.00
2018-11-25T04:54:15.017Z,0.00
2018-11-25T04:55:14.933Z,0.00
2018-11-25T04:56:14.843Z,0.00
2018-11-25T04:57:14.759Z,0.00
2018-11-25T04:58:14.676Z,0.00
2018-11-25T04:59:14.602Z,0.00
2018-11-25T05:00:14.522Z,0.00
2018-11-25T05:01:14.433Z,0.00
2018-11-25T05:02:14.343Z,0.00
2018-11-25T05:03:14.259Z,0.00
2018-11-25T05:04:14.175Z,0.00
2018-11-25T05:05:14.090Z,0.00
2018-11-25T05:06:14.009Z,0.00
2018-11-25T05:07:13.920Z,0.00
2018-11-25T05:08:13.845Z,0.00
2018-11-25T05:09:13.766Z,0.00
2018-11-25T05:10:13.681Z,0.00
2018-11-25T05:11:13.591Z,0.00
2018-11-25T05:12:13.499Z,0.00
2018-11-25T05:13:13.419Z,0.00
2018-11-25T05:14:13.337Z,0.00
2018-11-25T05:15:13.258Z,0.00
2018-11-25T05:16:13.169Z,0.00
2018-11-25T05:17:13.096Z,0.00
2018-11-25T05:18:12.996Z,0.00
2018-11-25T05:19:12.916Z,0.00
2018-11-25T05:20:12.834Z,0.00
2018-11-25T05:21:12.745Z,0.00
2018-11-25T05:22:12.661Z,0.00
2018-11-25T05:23:12.576Z,0.00
2018-11-25T05:24:12.493Z,0.00
2018-11-25T05:25:12.467Z,0.00
2018-11-25T05:26:12.338Z,0.00
2018-11-25T05:27:12.253Z,0.00
2018-11-25T05:28:12.155Z,0.00
2018-11-25T05:29:12.071Z,0.00
2018-11-25T05:30:11.988Z,0.00
2018-11-25T05:31:11.905Z,0.00
2018-11-25T05:32:11.823Z,0.00
2018-11-25T05:33:11.736Z,0.00
2018-11-25T05:34:11.652Z,0.00
2018-11-25T05:35:11.578Z,0.00
2018-11-25T05:36:11.500Z,0.00
2018-11-25T05:37:11.408Z,0.00
2018-11-25T05:38:11.320Z,0.00
2018-11-25T05:39:11.235Z,0.00
2018-11-25T05:40:11.156Z,0.00
2018-11-25T05:41:11.063Z,0.00
2018-11-25T05:42:10.983Z,0.00
2018-11-25T05:43:10.906Z,0.00
2018-11-25T05:44:10.824Z,0.00
2018-11-25T05:45:10.730Z,0.00
2018-11-25T05:46:10.646Z,0.00
2018-11-25T05:47:10.558Z,0.00
2018-11-25T05:48:10.478Z,0.00
2018-11-25T05:49:10.413Z,0.00
2018-11-25T05:50:10.310Z,0.00
2018-11-25T05:51:10.226Z,0.00
2018-11-25T05:52:10.154Z,0.00
2018-11-25T05:53:10.058Z,0.00
2018-11-25T05:54:09.973Z,0.00
2018-11-25T05:55:09.891Z,0.00
2018-11-25T05:56:09.802Z,0.00
2018-11-25T05:57:09.717Z,0.00
2018-11-25T05:58:09.635Z,0.00
2018-11-25T05:59:09.551Z,0.00
2018-11-25T06:00:09.464Z,0.00
2018-11-25T06:01:09.402Z,0.00
2018-11-25T06:02:09.299Z,0.00
2018-11-25T06:03:09.225Z,0.00
2018-11-25T06:04:09.130Z,0.00
2018-11-25T06:05:09.047Z,0.00
2018-11-25T06:06:08.970Z,0.00
2018-11-25T06:07:08.876Z,0.00
2018-11-25T06:08:08.824Z,0.00
2018-11-25T06:09:08.710Z,0.00
2018-11-25T06:10:08.627Z,0.00
2018-11-25T06:11:08.559Z,0.00
2018-11-25T06:12:08.455Z,0.00
2018-11-25T06:13:08.385Z,4.00
2018-11-25T06:14:08.289Z,4.00
2018-11-25T06:15:08.205Z,4.00
2018-11-25T06:16:08.119Z,4.00
2018-11-25T06:17:08.041Z,4.00
2018-11-25T06:18:07.971Z,4.00
2018-11-25T06:19:07.873Z,4.00
2018-11-25T06:20:07.831Z,4.00
2018-11-25T06:21:07.708Z,4.00
2018-11-25T06:22:07.621Z,8.00
2018-11-25T06:23:07.534Z,8.00
2018-11-25T06:24:07.447Z,8.00
2018-11-25T06:25:07.367Z,12.00
2018-11-25T06:26:07.284Z,8.00
2018-11-25T06:27:07.201Z,8.00
2018-11-25T06:28:07.130Z,12.00
2018-11-25T06:29:07.044Z,16.00
2018-11-25T06:30:06.950Z,16.00
2018-11-25T06:31:06.860Z,16.00
2018-11-25T06:32:06.775Z,20.00
2018-11-25T06:33:06.696Z,20.00
2018-11-25T06:34:06.611Z,24.00
2018-11-25T06:35:06.525Z,28.00
2018-11-25T06:36:06.456Z,24.00
2018-11-25T06:37:06.373Z,28.00
2018-11-25T06:38:06.279Z,32.00
2018-11-25T06:39:06.193Z,36.00
2018-11-25T06:40:06.104Z,40.00
2018-11-25T06:41:06.021Z,40.00
2018-11-25T06:42:06.024Z,44.00
2018-11-25T06:43:05.850Z,40.00
2018-11-25T06:44:05.777Z,48.00
2018-11-25T06:45:05.693Z,52.00
2018-11-25T06:46:05.615Z,52.00
2018-11-25T06:47:05.519Z,56.00
2018-11-25T06:48:05.434Z,60.00
2018-11-25T06:49:05.352Z,56.00
2018-11-25T06:50:05.266Z,60.00
2018-11-25T06:51:05.179Z,60.00
2018-11-25T06:52:05.118Z,68.00
2018-11-25T06:53:05.010Z,76.00
2018-11-25T06:54:04.934Z,76.00
2018-11-25T06:55:04.857Z,80.00
2018-11-25T06:56:04.761Z,84.00
2018-11-25T06:57:04.677Z,92.00
2018-11-25T06:58:04.594Z,100.00
2018-11-25T06:59:04.507Z,104.00
2018-11-25T07:00:04.427Z,104.00
2018-11-25T07:01:04.341Z,112.00
2018-11-25T07:02:04.257Z,124.00
2018-11-25T07:03:04.188Z,128.00
2018-11-25T07:04:04.094Z,132.00
2018-11-25T07:05:04.003Z,140.00
2018-11-25T07:06:03.919Z,144.00
2018-11-25T07:07:03.837Z,152.00
2018-11-25T07:08:03.749Z,156.00
2018-11-25T07:09:03.718Z,156.00
2018-11-25T07:10:03.583Z,164.00
2018-11-25T07:11:03.502Z,172.00
2018-11-25T07:12:03.418Z,172.00
2018-11-25T07:13:03.345Z,180.00
2018-11-25T07:14:03.254Z,188.00
2018-11-25T07:15:03.165Z,200.00
2018-11-25T07:16:03.082Z,208.00
2018-11-25T07:17:02.994Z,208.00
2018-11-25T07:18:02.917Z,216.00
2018-11-25T07:19:02.829Z,240.00
2018-11-25T07:20:02.770Z,268.00
2018-11-25T07:21:02.676Z,292.00
2018-11-25T07:22:02.597Z,324.00
2018-11-25T07:23:02.499Z,344.00
2018-11-25T07:24:02.407Z,360.00
2018-11-25T07:25:02.324Z,352.00
2018-11-25T07:26:02.238Z,356.00
2018-11-25T07:27:02.176Z,360.00
2018-11-25T07:28:17.678Z,376.00
2018-11-25T07:29:01.997Z,380.00
2018-11-25T07:30:07.640Z,388.00
2018-11-25T07:31:01.822Z,428.00
2018-11-25T07:32:01.739Z,436.00
2018-11-25T07:33:01.652Z,436.00
2018-11-25T07:34:01.568Z,408.00
2018-11-25T07:35:01.492Z,392.00
2018-11-25T07:36:01.404Z,388.00
2018-11-25T07:37:01.328Z,428.00
2018-11-25T07:38:01.243Z,452.00
2018-11-25T07:39:01.151Z,392.00
2018-11-25T07:40:01.065Z,444.00
2018-11-25T07:41:00.981Z,496.00
2018-11-25T07:42:00.902Z,508.00
2018-11-25T07:43:00.819Z,528.00
2018-11-25T07:44:00.751Z,552.00
2018-11-25T07:45:00.647Z,548.00
2018-11-25T07:46:00.566Z,556.00
2018-11-25T07:47:00.492Z,552.00
2018-11-25T07:48:00.402Z,536.00
2018-11-25T07:49:00.358Z,564.00
2018-11-25T07:50:00.240Z,576.00
2018-11-25T07:51:00.144Z,444.00
2018-11-25T07:52:00.061Z,544.00
2018-11-25T07:52:59.976Z,568.00
2018-11-25T07:53:59.893Z,516.00
2018-11-25T07:54:59.822Z,528.00
2018-11-25T07:55:59.729Z,552.00
2018-11-25T07:56:59.644Z,592.00
2018-11-25T07:57:59.562Z,584.00
2018-11-25T07:58:59.481Z,560.00
2018-11-25T07:59:59.390Z,524.00
2018-11-25T08:00:59.307Z,512.00
2018-11-25T08:01:59.223Z,540.00
2018-11-25T08:02:59.143Z,604.00
2018-11-25T08:03:59.058Z,600.00
2018-11-25T08:04:58.978Z,544.00
2018-11-25T08:05:58.890Z,552.00
2018-11-25T08:06:58.818Z,628.00
2018-11-25T08:07:58.720Z,612.00
2018-11-25T08:08:58.641Z,636.00
2018-11-25T08:09:58.562Z,640.00
2018-11-25T08:10:58.493Z,652.00
2018-11-25T08:11:58.402Z,640.00
2018-11-25T08:12:58.317Z,456.00
2018-11-25T08:13:58.225Z,608.00
2018-11-25T08:14:58.144Z,600.00
2018-11-25T08:15:58.054Z,656.00
2018-11-25T08:16:57.968Z,680.00
2018-11-25T08:17:57.889Z,684.00
2018-11-25T08:18:57.805Z,688.00
2018-11-25T08:19:57.737Z,708.00
2018-11-25T08:20:57.641Z,700.00
2018-11-25T08:21:57.554Z,700.00
2018-11-25T08:22:57.476Z,724.00
2018-11-25T08:23:57.383Z,720.00
2018-11-25T08:24:57.307Z,700.00
2018-11-25T08:25:57.217Z,720.00
2018-11-25T08:26:57.135Z,708.00
2018-11-25T08:27:57.055Z,692.00
2018-11-25T08:28:56.970Z,672.00
2018-11-25T08:30:04.618Z,712.00
2018-11-25T08:32:08.844Z,668.00
2018-11-25T08:33:08.721Z,716.00
2018-11-25T08:35:13.019Z,688.00
2018-11-25T08:36:12.923Z,656.00
2018-11-25T08:38:17.251Z,796.00
2018-11-25T08:39:17.127Z,880.00
2018-11-25T08:41:21.462Z,968.00
2018-11-25T08:42:21.321Z,944.00
2018-11-25T08:44:25.637Z,876.00
2018-11-25T08:45:25.535Z,852.00
2018-11-25T08:47:30.416Z,736.00
2018-11-25T08:48:30.746Z,732.00
2018-11-25T08:50:26.935Z,836.00
2018-11-25T08:51:26.848Z,980.00
2018-11-25T08:53:20.652Z,964.00
2018-11-25T08:54:20.524Z,992.00
2018-11-25T08:56:24.397Z,1084.00
2018-11-25T08:57:24.990Z,1092.00
2018-11-25T08:59:28.558Z,1120.00
2018-11-25T09:00:28.508Z,1148.00
2018-11-25T09:02:32.332Z,1196.00
2018-11-25T09:03:32.193Z,1180.00
2018-11-25T09:04:32.110Z,1084.00
2018-11-25T09:05:32.050Z,1124.00
2018-11-25T09:06:31.948Z,1120.00
2018-11-25T09:07:31.857Z,1144.00
2018-11-25T09:08:31.776Z,1196.00
2018-11-25T09:09:31.691Z,1124.00
2018-11-25T09:10:31.606Z,1180.00
2018-11-25T09:11:31.526Z,1344.00
2018-11-25T09:12:31.442Z,1252.00
2018-11-25T09:13:31.366Z,1164.00
2018-11-25T09:14:31.277Z,1312.00
2018-11-25T09:15:31.194Z,1340.00
2018-11-25T09:16:31.104Z,1336.00
2018-11-25T09:17:31.020Z,1140.00
2018-11-25T09:18:30.941Z,1116.00
2018-11-25T09:19:30.860Z,1124.00
2018-11-25T09:20:30.777Z,1128.00
2018-11-25T09:21:30.690Z,1176.00
2018-11-25T09:22:30.607Z,1408.00
2018-11-25T09:23:30.529Z,1516.00
2018-11-25T09:24:30.441Z,1504.00
2018-11-25T09:25:30.358Z,1220.00
2018-11-25T09:26:30.269Z,1092.00
2018-11-25T09:27:30.186Z,1200.00
2018-11-25T09:28:30.103Z,1356.00
2018-11-25T09:29:30.024Z,1120.00
2018-11-25T09:30:29.938Z,1396.00
2018-11-25T09:31:29.883Z,1672.00
2018-11-25T09:32:29.775Z,1900.00
2018-11-25T09:33:29.693Z,2132.00
2018-11-25T09:34:29.607Z,1924.00
2018-11-25T09:35:29.521Z,1804.00
2018-11-25T09:36:29.435Z,1660.00
2018-11-25T09:37:29.352Z,1680.00
2018-11-25T09:38:29.269Z,1740.00
2018-11-25T09:39:29.196Z,1996.00
2018-11-25T09:40:29.104Z,2112.00
2018-11-25T09:41:29.037Z,2044.00
2018-11-25T09:42:28.938Z,1860.00
2018-11-25T09:43:28.854Z,2020.00
2018-11-25T09:44:28.766Z,1924.00
2018-11-25T09:45:28.686Z,2032.00
2018-11-25T09:46:28.603Z,1984.00
2018-11-25T09:47:28.521Z,1848.00
2018-11-25T09:48:28.452Z,1856.00
2018-11-25T09:49:28.353Z,1940.00
2018-11-25T09:50:28.286Z,2084.00
2018-11-25T09:51:28.185Z,1932.00
2018-11-25T09:52:28.106Z,1792.00
2018-11-25T09:53:28.022Z,1840.00
2018-11-25T09:54:27.936Z,1900.00
2018-11-25T09:55:27.852Z,2076.00
2018-11-25T09:56:27.775Z,2072.00
2018-11-25T09:57:27.689Z,2316.00
2018-11-25T09:58:27.619Z,2100.00
2018-11-25T09:59:27.520Z,1976.00
2018-11-25T10:00:27.435Z,1936.00
2018-11-25T10:01:27.355Z,1828.00
2018-11-25T10:02:27.271Z,1772.00
2018-11-25T10:03:27.187Z,1640.00
2018-11-25T10:04:27.109Z,1548.00
2018-11-25T10:05:27.028Z,1332.00
2018-11-25T10:06:26.957Z,1316.00
2018-11-25T10:07:26.854Z,1276.00
2018-11-25T10:08:26.768Z,1392.00
2018-11-25T10:09:26.687Z,1572.00
2018-11-25T10:10:26.610Z,1684.00
2018-11-25T10:11:26.520Z,1644.00
2018-11-25T10:12:26.449Z,1652.00
2018-11-25T10:13:26.358Z,1424.00
2018-11-25T10:14:26.272Z,1412.00
2018-11-25T10:15:26.195Z,1440.00
2018-11-25T10:16:26.105Z,1348.00
2018-11-25T10:17:26.027Z,1276.00
2018-11-25T10:18:25.940Z,1520.00
2018-11-25T10:19:25.861Z,1720.00
2018-11-25T10:20:25.796Z,1768.00
2018-11-25T10:21:25.696Z,1784.00
2018-11-25T10:22:25.609Z,1720.00
2018-11-25T10:23:25.529Z,1288.00
2018-11-25T10:24:25.444Z,1236.00
2018-11-25T10:25:25.362Z,1372.00
2018-11-25T10:26:25.276Z,1376.00
2018-11-25T10:27:25.195Z,1376.00
2018-11-25T10:28:25.113Z,1408.00
2018-11-25T10:29:25.032Z,1516.00
2018-11-25T10:30:24.981Z,1560.00
2018-11-25T10:31:24.867Z,1412.00
2018-11-25T10:32:24.783Z,1344.00
2018-11-25T10:33:24.701Z,1484.00
2018-11-25T10:34:24.615Z,1476.00
2018-11-25T10:35:24.531Z,1464.00
2018-11-25T10:36:24.457Z,1404.00
2018-11-25T10:37:24.375Z,1396.00
2018-11-25T10:38:24.280Z,1308.00
2018-11-25T10:39:24.205Z,1092.00
2018-11-25T10:40:24.120Z,1104.00
2018-11-25T10:41:24.032Z,1252.00
2018-11-25T10:42:23.950Z,1360.00
2018-11-25T10:43:23.871Z,1400.00
2018-11-25T10:44:23.792Z,1332.00
2018-11-25T10:45:23.703Z,1376.00
2018-11-25T10:46:23.618Z,1324.00
2018-11-25T10:47:23.538Z,1272.00
2018-11-25T10:48:23.453Z,1208.00
2018-11-25T10:49:23.373Z,1240.00
2018-11-25T10:50:23.332Z,1272.00
2018-11-25T10:51:23.217Z,1296.00
2018-11-25T10:52:23.124Z,1272.00
2018-11-25T10:53:23.045Z,1240.00
2018-11-25T10:54:22.957Z,1208.00
2018-11-25T10:55:22.876Z,1224.00
2018-11-25T10:56:22.794Z,1256.00
2018-11-25T10:57:22.705Z,1284.00
2018-11-25T10:58:22.622Z,1312.00
2018-11-25T10:59:22.565Z,1268.00
2018-11-25T11:00:22.456Z,1360.00
2018-11-25T11:01:22.375Z,1476.00
2018-11-25T11:02:22.293Z,1572.00
2018-11-25T11:03:22.213Z,1620.00
2018-11-25T11:04:22.125Z,1536.00
2018-11-25T11:05:22.045Z,1456.00
2018-11-25T11:06:21.962Z,1412.00
2018-11-25T11:07:21.882Z,1356.00
2018-11-25T11:08:21.791Z,1424.00
2018-11-25T11:09:21.715Z,1308.00
2018-11-25T11:10:21.633Z,1316.00
2018-11-25T11:11:21.551Z,1672.00
2018-11-25T11:12:21.463Z,1540.00
2018-11-25T11:13:21.379Z,1568.00
2018-11-25T11:14:21.298Z,1700.00
2018-11-25T11:15:21.214Z,1964.00
2018-11-25T11:16:21.130Z,1932.00
2018-11-25T11:17:21.050Z,1956.00
2018-11-25T11:18:20.964Z,2192.00
2018-11-25T11:19:20.888Z,2128.00
2018-11-25T11:20:20.797Z,1884.00
2018-11-25T11:21:20.713Z,1808.00
2018-11-25T11:22:20.631Z,1936.00
2018-11-25T11:23:20.551Z,1912.00
2018-11-25T11:24:20.467Z,1932.00
2018-11-25T11:25:20.390Z,2164.00
2018-11-25T11:26:20.300Z,2160.00
2018-11-25T11:27:20.229Z,2084.00
2018-11-25T11:28:20.136Z,1964.00
2018-11-25T11:29:20.055Z,1796.00
2018-11-25T11:30:19.972Z,1596.00
2018-11-25T11:31:19.887Z,1752.00
2018-11-25T11:32:19.804Z,1700.00
2018-11-25T11:33:19.724Z,1616.00
2018-11-25T11:34:19.637Z,1584.00
2018-11-25T11:35:19.560Z,1616.00
2018-11-25T11:36:19.469Z,1736.00
2018-11-25T11:37:19.387Z,2280.00
2018-11-25T11:38:19.306Z,2436.00
2018-11-25T11:39:19.230Z,2276.00
2018-11-25T11:40:19.139Z,2140.00
2018-11-25T11:41:19.063Z,1968.00
2018-11-25T11:42:18.978Z,2024.00
2018-11-25T11:43:18.897Z,2144.00
2018-11-25T11:44:18.806Z,1888.00
2018-11-25T11:45:18.725Z,1788.00
2018-11-25T11:46:18.651Z,1964.00
2018-11-25T11:47:18.562Z,1904.00
2018-11-25T11:48:18.475Z,1832.00
2018-11-25T11:49:18.397Z,1952.00
2018-11-25T11:50:18.320Z,1920.00
2018-11-25T11:51:25.321Z,1644.00
2018-11-25T11:52:18.152Z,1740.00
2018-11-25T11:53:18.068Z,1728.00
2018-11-25T11:54:17.986Z,1964.00
2018-11-25T11:55:17.895Z,2064.00
2018-11-25T11:56:17.812Z,1760.00
2018-11-25T11:57:17.735Z,1632.00
2018-11-25T11:58:17.647Z,1752.00
2018-11-25T11:59:17.571Z,2084.00
2018-11-25T12:00:17.485Z,1864.00
2018-11-25T12:01:17.401Z,1744.00
2018-11-25T12:02:17.315Z,1568.00
2018-11-25T12:03:17.233Z,1364.00
2018-11-25T12:04:17.149Z,1328.00
2018-11-25T12:05:17.074Z,1432.00
2018-11-25T12:06:16.983Z,1608.00
2018-11-25T12:07:16.902Z,1452.00
2018-11-25T12:08:16.819Z,1476.00
2018-11-25T12:09:16.736Z,1464.00
2018-11-25T12:10:16.651Z,1512.00
2018-11-25T12:11:16.569Z,1624.00
2018-11-25T12:12:16.485Z,1712.00
2018-11-25T12:13:16.407Z,1868.00
2018-11-25T12:14:16.321Z,1996.00
2018-11-25T12:15:16.234Z,1980.00
2018-11-25T12:16:16.152Z,2024.00
2018-11-25T12:17:16.070Z,2064.00
2018-11-25T12:18:15.991Z,2180.00
2018-11-25T12:19:15.903Z,2332.00
2018-11-25T12:20:15.829Z,2084.00
2018-11-25T12:21:15.736Z,1960.00
2018-11-25T12:22:15.666Z,1928.00
2018-11-25T12:23:15.576Z,2040.00
2018-11-25T12:24:15.492Z,2088.00
2018-11-25T12:25:15.406Z,2140.00
2018-11-25T12:26:15.323Z,2104.00
2018-11-25T12:27:15.237Z,2220.00
2018-11-25T12:28:15.165Z,2284.00
2018-11-25T12:29:15.076Z,1956.00
2018-11-25T12:30:14.995Z,1724.00
2018-11-25T12:31:14.908Z,1680.00
2018-11-25T12:32:14.826Z,1628.00
2018-11-25T12:33:14.739Z,1672.00
2018-11-25T12:34:14.654Z,1680.00
2018-11-25T12:35:14.577Z,1740.00
2018-11-25T12:36:14.487Z,1708.00
2018-11-25T12:37:14.406Z,1640.00
2018-11-25T12:38:14.324Z,1452.00
2018-11-25T12:39:14.238Z,1384.00
2018-11-25T12:40:14.153Z,1352.00
2018-11-25T12:41:14.072Z,1440.00
2018-11-25T12:42:13.987Z,1520.00
2018-11-25T12:43:13.905Z,1508.00
2018-11-25T12:44:13.821Z,1504.00
2018-11-25T12:45:13.743Z,1552.00
2018-11-25T12:46:13.654Z,1676.00
2018-11-25T12:47:13.571Z,1620.00
2018-11-25T12:48:13.486Z,1500.00
2018-11-25T12:49:13.406Z,1424.00
2018-11-25T12:50:13.326Z,1340.00
2018-11-25T12:51:13.235Z,1408.00
2018-11-25T12:52:13.151Z,1372.00
2018-11-25T12:53:13.073Z,1400.00
2018-11-25T12:54:12.986Z,1380.00
2018-11-25T12:55:12.913Z,1296.00
2018-11-25T12:56:12.817Z,1352.00
2018-11-25T12:57:12.734Z,1236.00
2018-11-25T12:58:12.653Z,1300.00
2018-11-25T12:59:12.571Z,1388.00
2018-11-25T13:00:12.481Z,1344.00
2018-11-25T13:01:12.402Z,1224.00
2018-11-25T13:02:12.320Z,1232.00
2018-11-25T13:03:12.235Z,1376.00
2018-11-25T13:04:12.456Z,1620.00